createdAt,value
2022-08-17T00:00:34.492Z,18.80
2022-08-17T00:03:39.222Z,18.80
2022-08-17T00:06:24.941Z,18.80
2022-08-17T00:08:58.582Z,18.70
2022-08-17T00:11:28.581Z,18.60
2022-08-17T00:14:08.380Z,18.60
2022-08-17T00:16:56.243Z,18.50
2022-08-17T00:19:25.832Z,18.50
2022-08-17T00:22:32.942Z,18.50
2022-08-17T00:24:43.540Z,18.50
2022-08-17T00:27:10.443Z,18.40
2022-08-17T00:29:37.359Z,18.40
2022-08-17T00:33:15.900Z,18.30
2022-08-17T00:34:51.591Z,18.30
2022-08-17T00:37:18.469Z,18.30
2022-08-17T00:39:45.396Z,18.30
2022-08-17T00:42:24.485Z,18.20
2022-08-17T00:44:53.737Z,18.10
2022-08-17T00:47:20.664Z,18.00
2022-08-17T00:49:47.523Z,18.00
2022-08-17T00:52:20.573Z,18.00
2022-08-17T00:54:52.207Z,17.90
2022-08-17T00:57:23.330Z,17.90
2022-08-17T01:00:02.219Z,17.90
2022-08-17T01:02:41.479Z,17.90
2022-08-17T01:05:18.869Z,17.90
2022-08-17T01:07:50.746Z,17.80
2022-08-17T01:10:59.360Z,17.80
2022-08-17T01:13:22.547Z,17.80
2022-08-17T01:16:04.491Z,17.70
2022-08-17T01:18:33.015Z,17.70
2022-08-17T01:21:10.125Z,17.70
2022-08-17T01:23:37.945Z,17.60
2022-08-17T01:26:06.384Z,17.60
2022-08-17T01:28:54.002Z,17.60
2022-08-17T01:31:24.873Z,17.70
2022-08-17T01:33:52.223Z,17.70
2022-08-17T01:36:19.585Z,17.70
2022-08-17T01:38:46.715Z,17.70
2022-08-17T01:41:16.481Z,17.80
2022-08-17T01:44:01.401Z,17.80
2022-08-17T01:46:33.364Z,17.80
2022-08-17T01:49:01.310Z,17.90
2022-08-17T01:51:32.917Z,17.90
2022-08-17T01:54:05.723Z,18.00
2022-08-17T01:56:36.200Z,18.00
2022-08-17T01:59:05.054Z,18.00
2022-08-17T02:01:34.517Z,18.00
2022-08-17T02:04:02.294Z,18.10
2022-08-17T02:06:52.770Z,18.10
2022-08-17T02:09:18.611Z,18.10
2022-08-17T02:11:48.510Z,18.00
2022-08-17T02:14:17.945Z,17.80
2022-08-17T02:16:44.751Z,17.80
2022-08-17T02:19:15.656Z,17.80
2022-08-17T02:21:51.251Z,17.80
2022-08-17T02:25:00.983Z,17.70
2022-08-17T02:27:21.108Z,17.70
2022-08-17T02:29:47.995Z,17.60
2022-08-17T02:32:27.313Z,17.60
2022-08-17T02:34:55.027Z,17.50
2022-08-17T02:37:21.903Z,17.50
2022-08-17T02:39:48.913Z,17.50
2022-08-17T02:42:15.882Z,17.50
2022-08-17T02:44:42.885Z,17.50
2022-08-17T02:47:11.172Z,17.40
2022-08-17T02:49:38.419Z,17.40
2022-08-17T02:52:07.751Z,17.40
2022-08-17T02:54:40.687Z,17.40
2022-08-17T02:57:09.891Z,17.40
2022-08-17T02:59:46.807Z,17.40
2022-08-17T03:02:16.138Z,17.40
2022-08-17T03:04:43.366Z,17.40
2022-08-17T03:07:10.231Z,17.40
2022-08-17T03:09:38.137Z,17.40
2022-08-17T03:12:11.221Z,17.30
2022-08-17T03:14:42.275Z,17.30
2022-08-17T03:17:17.149Z,17.30
2022-08-17T03:19:44.857Z,17.20
2022-08-17T03:22:36.165Z,17.20
2022-08-17T03:24:58.955Z,17.20
2022-08-17T03:27:26.281Z,17.20
2022-08-17T03:29:54.324Z,17.20
2022-08-17T03:32:21.198Z,17.30
2022-08-17T03:34:48.410Z,17.30
2022-08-17T03:37:15.303Z,17.30
2022-08-17T03:39:42.908Z,17.30
2022-08-17T03:42:32.224Z,17.30
2022-08-17T03:45:00.081Z,17.30
2022-08-17T03:47:45.610Z,17.30
2022-08-17T03:50:33.068Z,17.30
2022-08-17T03:53:18.961Z,17.30
2022-08-17T03:56:04.512Z,17.30
2022-08-17T03:58:31.374Z,17.30
2022-08-17T04:00:58.384Z,17.40
2022-08-17T04:03:25.466Z,17.40
2022-08-17T04:05:52.925Z,17.40
2022-08-17T04:08:19.753Z,17.40
2022-08-17T04:10:46.878Z,17.40
2022-08-17T04:13:13.967Z,17.40
2022-08-17T04:15:48.112Z,17.40
2022-08-17T04:18:18.410Z,17.40
2022-08-17T04:20:45.934Z,17.40
2022-08-17T04:23:16.505Z,17.40
2022-08-17T04:25:49.026Z,17.40
2022-08-17T04:28:17.627Z,17.50
2022-08-17T04:30:46.313Z,17.50
2022-08-17T04:33:17.138Z,17.50
2022-08-17T04:35:45.676Z,17.50
2022-08-17T04:38:18.869Z,17.60
2022-08-17T04:41:05.066Z,17.60
2022-08-17T04:43:33.817Z,17.70
2022-08-17T04:46:04.637Z,17.70
2022-08-17T04:48:36.353Z,17.70
2022-08-17T04:51:11.109Z,17.80
2022-08-17T04:53:40.070Z,17.80
2022-08-17T04:56:07.867Z,17.80
2022-08-17T04:58:39.074Z,17.90
2022-08-17T05:01:07.567Z,17.90
2022-08-17T05:03:35.003Z,18.00
2022-08-17T05:06:02.239Z,18.00
2022-08-17T05:08:29.069Z,18.10
2022-08-17T05:10:55.978Z,18.20
2022-08-17T05:13:25.724Z,18.40
2022-08-17T05:15:56.411Z,18.40
2022-08-17T05:18:24.611Z,18.60
2022-08-17T05:20:52.521Z,18.70
2022-08-17T05:23:21.514Z,18.80
2022-08-17T05:25:53.175Z,18.90
2022-08-17T05:28:24.250Z,19.10
2022-08-17T05:30:56.951Z,19.20
2022-08-17T05:33:26.988Z,19.30
2022-08-17T05:35:57.629Z,19.40
2022-08-17T05:38:27.267Z,19.50
2022-08-17T05:40:55.520Z,19.60
2022-08-17T05:43:28.677Z,19.70
2022-08-17T05:46:24.595Z,19.80
2022-08-17T05:49:01.622Z,19.80
2022-08-17T05:52:18.780Z,19.90
2022-08-17T05:55:18.416Z,20.00
2022-08-17T05:58:01.635Z,20.10
2022-08-17T06:00:37.936Z,20.10
2022-08-17T06:03:48.940Z,20.20
2022-08-17T06:06:45.267Z,20.20
2022-08-17T06:09:26.652Z,20.20
2022-08-17T06:12:08.170Z,20.20
2022-08-17T06:15:04.060Z,20.30
2022-08-17T06:17:31.701Z,20.40
2022-08-17T06:20:19.100Z,20.60
2022-08-17T06:22:50.568Z,20.70
2022-08-17T06:25:33.834Z,20.90
2022-08-17T06:28:16.357Z,21.10
2022-08-17T06:31:01.420Z,21.20
2022-08-17T06:33:35.460Z,21.30
2022-08-17T06:36:50.321Z,21.50
2022-08-17T06:39:45.236Z,21.60
2022-08-17T06:43:04.687Z,21.80
2022-08-17T06:45:42.379Z,21.90
2022-08-17T06:48:31.499Z,22.10
2022-08-17T06:51:19.135Z,22.20
2022-08-17T06:53:53.379Z,22.40
2022-08-17T06:56:52.931Z,22.50
2022-08-17T07:00:07.940Z,22.70
2022-08-17T07:02:57.830Z,22.90
2022-08-17T07:05:31.771Z,23.10
2022-08-17T07:08:04.618Z,23.30
2022-08-17T07:10:37.056Z,23.50
2022-08-17T07:13:29.356Z,23.70
2022-08-17T07:16:22.028Z,23.90
2022-08-17T07:18:52.992Z,24.20
2022-08-17T07:21:38.619Z,24.40
2022-08-17T07:24:29.384Z,24.60
2022-08-17T07:27:06.430Z,24.80
2022-08-17T07:29:39.148Z,25.00
2022-08-17T07:32:07.455Z,25.30
2022-08-17T07:35:11.617Z,26.10
2022-08-17T07:37:41.283Z,28.20
2022-08-17T07:40:21.925Z,30.30
2022-08-17T07:43:07.586Z,32.30
2022-08-17T07:46:23.440Z,33.90
2022-08-17T07:48:53.783Z,35.30
2022-08-17T07:51:33.784Z,36.90
2022-08-17T07:54:13.989Z,37.80
2022-08-17T07:56:47.296Z,38.90
2022-08-17T07:59:23.439Z,40.00
2022-08-17T08:02:16.230Z,41.10
2022-08-17T08:05:00.693Z,42.20
2022-08-17T08:07:50.490Z,43.00
2022-08-17T08:10:32.715Z,43.70
2022-08-17T08:13:08.495Z,44.30
2022-08-17T08:15:54.350Z,44.70
2022-08-17T08:18:54.368Z,45.00
2022-08-17T08:21:33.053Z,45.50
2022-08-17T08:24:10.954Z,46.00
2022-08-17T08:26:49.144Z,46.50
2022-08-17T08:30:15.585Z,46.70
2022-08-17T08:32:48.552Z,47.30
2022-08-17T08:35:40.136Z,47.60
2022-08-17T08:38:20.009Z,47.60
2022-08-17T08:41:05.127Z,48.00
2022-08-17T08:44:01.407Z,47.90
2022-08-17T08:46:43.503Z,48.20
2022-08-17T08:49:45.220Z,48.00
2022-08-17T08:52:50.057Z,48.10
2022-08-17T08:55:28.547Z,47.90
2022-08-17T08:58:04.886Z,47.90
2022-08-17T09:00:36.210Z,47.90
2022-08-17T09:03:52.405Z,48.00
2022-08-17T09:06:50.068Z,48.00
2022-08-17T09:09:39.549Z,48.30
2022-08-17T09:12:25.635Z,49.00
2022-08-17T09:15:18.370Z,49.30
2022-08-17T09:19:02.178Z,50.10
2022-08-17T09:21:21.506Z,50.40
2022-08-17T09:23:59.992Z,50.60
2022-08-17T09:26:59.522Z,50.10
2022-08-17T09:29:34.968Z,48.90
2022-08-17T09:32:06.980Z,48.70
2022-08-17T09:34:43.441Z,48.70
2022-08-17T09:37:42.634Z,49.40
2022-08-17T09:40:28.840Z,49.80
2022-08-17T09:43:01.522Z,49.70
2022-08-17T09:45:42.760Z,50.20
2022-08-17T09:48:45.732Z,50.10
2022-08-17T09:51:34.611Z,49.90
2022-08-17T09:54:34.785Z,50.00
2022-08-17T09:57:31.440Z,50.20
2022-08-17T10:00:10.522Z,50.50
2022-08-17T10:03:09.558Z,50.20
2022-08-17T10:05:56.430Z,49.30
2022-08-17T10:08:35.960Z,49.10
2022-08-17T10:11:50.678Z,48.80
2022-08-17T10:14:37.471Z,48.80
2022-08-17T10:17:56.283Z,49.40
2022-08-17T10:20:30.162Z,49.80
2022-08-17T10:23:21.219Z,50.10
2022-08-17T10:26:13.142Z,50.20
2022-08-17T10:28:52.711Z,49.90
2022-08-17T10:31:40.810Z,49.30
2022-08-17T10:34:41.301Z,48.90
2022-08-17T10:37:11.650Z,48.50
2022-08-17T10:39:57.447Z,47.70
2022-08-17T10:42:36.715Z,47.30
2022-08-17T10:45:19.363Z,47.40
2022-08-17T10:48:26.733Z,47.90
2022-08-17T10:50:57.692Z,48.70
2022-08-17T10:53:36.819Z,49.10
2022-08-17T10:56:13.654Z,48.40
2022-08-17T10:58:51.184Z,47.70
2022-08-17T11:01:18.540Z,48.00
2022-08-17T11:03:55.859Z,48.40
2022-08-17T11:06:49.286Z,48.50
2022-08-17T11:09:47.427Z,49.20
2022-08-17T11:12:29.564Z,49.60
2022-08-17T11:15:17.606Z,49.30
2022-08-17T11:18:06.261Z,48.10
2022-08-17T11:20:55.699Z,47.10
2022-08-17T11:23:48.300Z,46.20
2022-08-17T11:26:26.159Z,45.70
2022-08-17T11:29:01.368Z,46.50
2022-08-17T11:31:39.877Z,47.70
2022-08-17T11:34:21.503Z,48.50
2022-08-17T11:36:51.799Z,49.00
2022-08-17T11:39:24.771Z,49.50
2022-08-17T11:42:05.843Z,50.00
2022-08-17T11:44:52.471Z,50.20
2022-08-17T11:48:26.650Z,50.20
2022-08-17T11:51:46.637Z,49.80
2022-08-17T11:54:34.029Z,49.70
2022-08-17T11:57:26.854Z,49.60
2022-08-17T11:59:58.800Z,49.60
2022-08-17T12:02:27.986Z,49.40
2022-08-17T12:05:27.189Z,49.40
2022-08-17T12:08:17.722Z,49.70
2022-08-17T12:11:02.772Z,49.90
2022-08-17T12:13:38.651Z,49.90
2022-08-17T12:16:07.353Z,49.90
2022-08-17T12:18:38.374Z,50.00
2022-08-17T12:21:21.857Z,49.70
2022-08-17T12:24:29.113Z,49.00
2022-08-17T12:26:58.965Z,47.80
2022-08-17T12:29:38.932Z,47.80
2022-08-17T12:32:07.137Z,47.60
2022-08-17T12:34:41.239Z,46.20
2022-08-17T12:37:31.262Z,45.00
2022-08-17T12:40:31.737Z,43.60
2022-08-17T12:43:01.495Z,42.20
2022-08-17T12:45:35.479Z,41.30
2022-08-17T12:48:24.193Z,40.40
2022-08-17T12:50:51.953Z,39.60
2022-08-17T12:53:25.643Z,39.10
2022-08-17T12:55:53.593Z,39.00
2022-08-17T12:58:29.613Z,38.90
2022-08-17T13:01:08.713Z,38.80
2022-08-17T13:03:40.734Z,39.00
2022-08-17T13:06:12.009Z,38.80
2022-08-17T13:08:44.657Z,40.10
2022-08-17T13:11:14.450Z,40.70
2022-08-17T13:13:44.604Z,40.70
2022-08-17T13:16:18.645Z,41.00
2022-08-17T13:18:46.930Z,41.70
2022-08-17T13:21:20.069Z,41.00
2022-08-17T13:24:11.186Z,40.50
2022-08-17T13:26:59.150Z,39.50
2022-08-17T13:29:51.655Z,38.60
2022-08-17T13:32:44.019Z,37.90
2022-08-17T13:35:39.251Z,37.70
2022-08-17T13:38:13.402Z,37.40
2022-08-17T13:40:50.306Z,37.20
2022-08-17T13:43:48.635Z,37.00
2022-08-17T13:46:26.516Z,36.80
2022-08-17T13:49:11.715Z,36.80
2022-08-17T13:51:49.771Z,36.90
2022-08-17T13:54:23.084Z,37.10
2022-08-17T13:56:50.186Z,37.10
2022-08-17T13:59:52.727Z,37.00
2022-08-17T14:02:14.891Z,36.70
2022-08-17T14:04:43.839Z,36.70
2022-08-17T14:07:15.377Z,36.70
2022-08-17T14:09:53.377Z,36.80
2022-08-17T14:12:24.992Z,36.70
2022-08-17T14:14:53.471Z,36.20
2022-08-17T14:17:20.914Z,36.10
2022-08-17T14:19:48.157Z,35.70
2022-08-17T14:22:23.654Z,35.40
2022-08-17T14:24:51.387Z,35.20
2022-08-17T14:27:19.374Z,35.00
2022-08-17T14:29:47.228Z,34.80
2022-08-17T14:32:20.776Z,34.50
2022-08-17T14:34:49.479Z,34.30
2022-08-17T14:37:20.991Z,34.20
2022-08-17T14:39:48.159Z,34.00
2022-08-17T14:42:15.447Z,33.70
2022-08-17T14:44:42.508Z,33.50
2022-08-17T14:47:15.835Z,33.40
2022-08-17T14:49:43.797Z,33.40
2022-08-17T14:52:17.081Z,33.50
2022-08-17T14:54:45.971Z,33.70
2022-08-17T14:57:25.875Z,33.90
2022-08-17T15:00:00.288Z,34.10
2022-08-17T15:02:30.202Z,34.40
2022-08-17T15:05:05.379Z,34.50
2022-08-17T15:07:32.440Z,34.60
2022-08-17T15:10:01.500Z,34.70
2022-08-17T15:12:33.399Z,34.70
2022-08-17T15:15:05.022Z,34.60
2022-08-17T15:17:44.719Z,34.40
2022-08-17T15:20:25.447Z,34.20
2022-08-17T15:22:55.914Z,34.10
2022-08-17T15:25:30.419Z,33.80
2022-08-17T15:27:58.112Z,33.50
2022-08-17T15:30:26.611Z,33.30
2022-08-17T15:32:55.460Z,33.00
2022-08-17T15:35:29.081Z,32.70
2022-08-17T15:38:07.860Z,32.50
2022-08-17T15:40:44.108Z,32.30
2022-08-17T15:43:15.102Z,32.20
2022-08-17T15:45:42.035Z,32.00
2022-08-17T15:48:09.598Z,31.90
2022-08-17T15:50:37.331Z,31.90
2022-08-17T15:53:04.849Z,31.80
2022-08-17T15:55:33.325Z,31.80
2022-08-17T15:58:00.980Z,31.70
2022-08-17T16:00:29.212Z,31.60
2022-08-17T16:03:45.668Z,31.50
2022-08-17T16:05:46.752Z,31.50
2022-08-17T16:08:20.212Z,31.60
2022-08-17T16:10:49.501Z,31.60
2022-08-17T16:13:18.408Z,31.60
2022-08-17T16:15:56.598Z,31.50
2022-08-17T16:18:31.083Z,31.50
2022-08-17T16:21:18.989Z,31.50
2022-08-17T16:23:47.527Z,31.50
2022-08-17T16:26:14.840Z,31.50
2022-08-17T16:28:42.022Z,31.40
2022-08-17T16:31:09.417Z,31.30
2022-08-17T16:33:39.503Z,31.20
2022-08-17T16:36:07.613Z,31.20
2022-08-17T16:38:35.942Z,31.10
2022-08-17T16:41:06.613Z,31.10
2022-08-17T16:43:34.644Z,31.00
2022-08-17T16:46:01.931Z,31.00
2022-08-17T16:48:29.970Z,31.00
2022-08-17T16:51:02.853Z,30.90
2022-08-17T16:53:31.025Z,30.90
2022-08-17T16:55:58.501Z,30.90
2022-08-17T16:58:25.376Z,30.90
2022-08-17T17:00:52.328Z,30.80
2022-08-17T17:03:24.040Z,30.70
2022-08-17T17:06:22.772Z,30.70
2022-08-17T17:08:59.723Z,30.60
2022-08-17T17:11:34.407Z,30.50
2022-08-17T17:14:09.154Z,30.30
2022-08-17T17:16:50.356Z,30.20
2022-08-17T17:19:32.527Z,30.00
2022-08-17T17:22:11.062Z,29.90
2022-08-17T17:24:51.555Z,29.80
2022-08-17T17:27:47.325Z,29.70
2022-08-17T17:30:29.454Z,29.70
2022-08-17T17:33:05.000Z,29.60
2022-08-17T17:35:40.754Z,29.50
2022-08-17T17:38:15.418Z,29.50
2022-08-17T17:40:45.591Z,29.40
2022-08-17T17:43:37.583Z,29.30
2022-08-17T17:46:27.333Z,29.20
2022-08-17T17:48:59.886Z,29.10
2022-08-17T17:52:06.927Z,29.00
2022-08-17T17:54:42.833Z,28.90
2022-08-17T17:57:30.068Z,28.80
2022-08-17T18:00:08.739Z,28.60
2022-08-17T18:03:09.409Z,28.50
2022-08-17T18:05:54.251Z,28.40
2022-08-17T18:08:38.433Z,28.30
2022-08-17T18:11:25.262Z,28.10
2022-08-17T18:13:58.714Z,28.00
2022-08-17T18:16:27.381Z,27.80
2022-08-17T18:18:57.678Z,27.70
2022-08-17T18:21:36.587Z,27.50
2022-08-17T18:24:07.335Z,27.30
2022-08-17T18:26:52.357Z,27.20
2022-08-17T18:29:28.156Z,27.10
2022-08-17T18:32:17.642Z,27.00
2022-08-17T18:34:48.851Z,26.80
2022-08-17T18:37:39.018Z,26.70
2022-08-17T18:40:19.933Z,26.50
2022-08-17T18:42:59.938Z,26.30
2022-08-17T18:45:36.242Z,26.10
2022-08-17T18:48:03.460Z,26.00
2022-08-17T18:50:52.241Z,25.90
2022-08-17T18:53:30.389Z,25.80
2022-08-17T18:56:22.753Z,25.70
2022-08-17T18:59:10.898Z,25.60
2022-08-17T19:01:52.374Z,25.50
2022-08-17T19:04:34.702Z,25.50
2022-08-17T19:07:19.492Z,25.40
2022-08-17T19:10:03.097Z,25.30
2022-08-17T19:12:53.170Z,25.20
2022-08-17T19:16:13.778Z,25.20
2022-08-17T19:19:04.848Z,25.10
2022-08-17T19:21:57.566Z,25.00
2022-08-17T19:24:27.746Z,24.90
2022-08-17T19:27:49.940Z,24.80
2022-08-17T19:30:17.550Z,24.80
2022-08-17T19:32:44.507Z,24.80
2022-08-17T19:35:20.093Z,24.80
2022-08-17T19:37:58.956Z,24.80
2022-08-17T19:40:52.245Z,24.70
2022-08-17T19:43:58.038Z,24.70
2022-08-17T19:46:56.257Z,24.70
2022-08-17T19:49:46.664Z,24.60
2022-08-17T19:52:31.685Z,24.50
2022-08-17T19:55:33.356Z,24.50
2022-08-17T19:58:46.107Z,24.40
2022-08-17T20:01:29.942Z,24.30
2022-08-17T20:04:15.468Z,24.30
2022-08-17T20:06:45.475Z,24.30
2022-08-17T20:09:33.997Z,24.30
2022-08-17T20:12:13.230Z,24.30
2022-08-17T20:14:53.939Z,24.20
2022-08-17T20:17:28.212Z,24.10
2022-08-17T20:20:06.243Z,24.00
2022-08-17T20:22:52.103Z,24.00
2022-08-17T20:25:35.482Z,24.00
2022-08-17T20:28:19.415Z,23.90
2022-08-17T20:30:46.726Z,23.90
2022-08-17T20:33:25.123Z,23.80
2022-08-17T20:36:19.609Z,23.80
2022-08-17T20:38:49.038Z,23.80
2022-08-17T20:41:29.946Z,23.70
2022-08-17T20:43:56.713Z,23.70
2022-08-17T20:46:26.775Z,23.60
2022-08-17T20:49:08.471Z,23.50
2022-08-17T20:52:00.517Z,23.50
2022-08-17T20:54:52.697Z,23.50
2022-08-17T20:57:32.201Z,23.40
2022-08-17T21:00:20.984Z,23.30
2022-08-17T21:03:25.382Z,23.30
2022-08-17T21:06:17.649Z,23.20
2022-08-17T21:09:18.995Z,23.10
2022-08-17T21:12:08.387Z,23.00
2022-08-17T21:15:07.037Z,23.00
2022-08-17T21:18:23.415Z,22.90
2022-08-17T21:21:18.387Z,22.80
2022-08-17T21:24:19.266Z,22.70
2022-08-17T21:26:55.483Z,22.60
2022-08-17T21:30:34.465Z,22.50
2022-08-17T21:33:31.640Z,22.50
2022-08-17T21:36:13.558Z,22.40
2022-08-17T21:38:58.327Z,22.40
2022-08-17T21:41:31.013Z,22.30
2022-08-17T21:44:11.199Z,22.30
2022-08-17T21:46:46.693Z,22.30
2022-08-17T21:49:17.898Z,22.20
2022-08-17T21:51:49.978Z,22.20
2022-08-17T21:54:29.874Z,22.20
2022-08-17T21:56:58.598Z,22.10
2022-08-17T21:59:38.626Z,22.10
2022-08-17T22:02:21.075Z,22.10
2022-08-17T22:05:08.060Z,22.10
2022-08-17T22:07:45.791Z,22.10
2022-08-17T22:10:37.411Z,22.00
2022-08-17T22:13:16.717Z,22.00
2022-08-17T22:16:15.682Z,22.00
2022-08-17T22:18:53.883Z,22.00
2022-08-17T22:21:22.525Z,22.00
2022-08-17T22:24:22.562Z,22.00
2022-08-17T22:27:06.907Z,22.00
2022-08-17T22:29:56.953Z,22.00
2022-08-17T22:32:38.030Z,21.90
2022-08-17T22:35:32.730Z,21.80
2022-08-17T22:38:18.684Z,21.70
2022-08-17T22:40:54.409Z,21.60
2022-08-17T22:43:26.729Z,21.60
2022-08-17T22:45:59.032Z,21.60
2022-08-17T22:48:29.219Z,21.60
2022-08-17T22:51:14.142Z,21.60
2022-08-17T22:54:08.007Z,21.60
2022-08-17T22:56:54.742Z,21.60
2022-08-17T22:59:44.839Z,21.60
2022-08-17T23:02:23.286Z,21.50
2022-08-17T23:04:57.437Z,21.50
2022-08-17T23:07:24.360Z,21.50
2022-08-17T23:09:52.769Z,21.50
2022-08-17T23:12:26.177Z,21.50
2022-08-17T23:15:00.522Z,21.40
2022-08-17T23:17:37.233Z,21.40
2022-08-17T23:20:08.510Z,21.40
2022-08-17T23:22:37.571Z,21.30
2022-08-17T23:25:27.027Z,21.20
2022-08-17T23:27:54.891Z,21.20
2022-08-17T23:30:25.802Z,21.00
2022-08-17T23:32:54.436Z,20.90
2022-08-17T23:35:39.683Z,20.80
2022-08-17T23:38:12.779Z,20.90
2022-08-17T23:40:40.965Z,20.70
2022-08-17T23:43:24.852Z,20.60
2022-08-17T23:45:55.213Z,20.60
2022-08-17T23:48:32.542Z,20.60
2022-08-17T23:51:19.143Z,20.50
2022-08-17T23:53:58.167Z,20.50
2022-08-17T23:56:28.100Z,20.50
2022-08-17T23:58:55.624Z,20.50
